createdAt,value
2019-05-17T00:00:52.197Z,4.35
2019-05-17T00:03:39.187Z,3.85
2019-05-17T00:06:24.612Z,4.17
2019-05-17T00:09:09.299Z,4.50
2019-05-17T00:11:54.250Z,3.85
2019-05-17T00:14:39.121Z,4.30
2019-05-17T00:17:26.622Z,4.22
2019-05-17T00:20:11.803Z,4.03
2019-05-17T00:22:57.418Z,4.03
2019-05-17T00:25:42.721Z,4.47
2019-05-17T00:28:27.745Z,4.20
2019-05-17T00:31:13.793Z,4.50
2019-05-17T00:33:58.618Z,4.10
2019-05-17T00:36:43.394Z,3.90
2019-05-17T00:39:28.273Z,4.05
2019-05-17T00:42:13.589Z,4.10
2019-05-17T00:44:58.258Z,4.20
2019-05-17T00:47:43.028Z,4.15
2019-05-17T00:50:27.893Z,4.15
2019-05-17T00:53:12.738Z,4.25
2019-05-17T00:55:57.550Z,3.95
2019-05-17T00:58:42.455Z,4.10
2019-05-17T01:01:27.167Z,4.10
2019-05-17T01:04:12.082Z,5.10
2019-05-17T01:06:56.859Z,4.40
2019-05-17T01:09:42.761Z,4.67
2019-05-17T01:12:27.477Z,4.40
2019-05-17T01:15:13.301Z,4.17
2019-05-17T01:17:58.653Z,4.20
2019-05-17T01:20:43.489Z,4.58
2019-05-17T01:23:28.459Z,4.95
2019-05-17T01:26:13.519Z,4.75
2019-05-17T01:28:59.046Z,4.92
2019-05-17T01:31:46.483Z,4.15
2019-05-17T01:34:31.298Z,4.87
2019-05-17T01:37:17.132Z,5.33
2019-05-17T01:40:06.604Z,5.22
2019-05-17T01:42:51.193Z,5.37
2019-05-17T01:45:36.595Z,5.00
2019-05-17T01:48:21.562Z,5.45
2019-05-17T01:51:07.550Z,5.10
2019-05-17T01:53:52.509Z,4.42
2019-05-17T01:56:50.935Z,4.80
2019-05-17T01:59:37.288Z,4.12
2019-05-17T02:02:24.384Z,4.85
2019-05-17T02:05:09.829Z,4.37
2019-05-17T02:07:56.884Z,4.50
2019-05-17T02:10:41.593Z,4.67
2019-05-17T02:13:26.845Z,4.85
2019-05-17T02:16:11.781Z,4.75
2019-05-17T02:18:57.323Z,5.10
2019-05-17T02:21:42.452Z,5.33
2019-05-17T02:24:27.559Z,4.67
2019-05-17T02:27:12.870Z,5.25
2019-05-17T02:29:57.853Z,4.85
2019-05-17T02:32:43.871Z,5.55
2019-05-17T02:35:28.585Z,6.45
2019-05-17T02:38:13.502Z,5.85
2019-05-17T02:40:58.431Z,6.00
2019-05-17T02:43:43.607Z,5.37
2019-05-17T02:46:28.826Z,6.42
2019-05-17T02:49:13.965Z,5.25
2019-05-17T02:51:59.073Z,5.90
2019-05-17T02:54:43.918Z,5.20
2019-05-17T02:57:28.899Z,5.22
2019-05-17T03:00:14.337Z,5.22
2019-05-17T03:03:03.020Z,5.58
2019-05-17T03:05:46.580Z,7.10
2019-05-17T03:08:34.084Z,7.78
2019-05-17T03:11:18.290Z,9.65
2019-05-17T03:14:04.076Z,9.43
2019-05-17T03:16:53.425Z,10.35
2019-05-17T03:19:37.390Z,9.33
2019-05-17T03:22:23.119Z,9.78
2019-05-17T03:25:08.778Z,10.08
2019-05-17T03:27:53.939Z,10.05
2019-05-17T03:30:39.817Z,9.83
2019-05-17T03:33:27.204Z,10.65
2019-05-17T03:36:16.923Z,11.30
2019-05-17T03:39:02.886Z,12.85
2019-05-17T03:41:48.342Z,12.95
2019-05-17T03:44:33.416Z,14.00
2019-05-17T03:47:18.513Z,13.28
2019-05-17T03:50:04.540Z,12.75
2019-05-17T03:52:53.284Z,13.20
2019-05-17T03:55:36.249Z,13.88
2019-05-17T03:58:23.501Z,13.58
2019-05-17T04:01:07.816Z,13.32
2019-05-17T04:03:53.118Z,12.93
2019-05-17T04:06:38.048Z,14.00
2019-05-17T04:09:22.762Z,12.58
2019-05-17T04:12:07.436Z,13.58
2019-05-17T04:14:53.310Z,13.43
2019-05-17T04:17:38.969Z,14.03
2019-05-17T04:20:23.789Z,13.70
2019-05-17T04:23:08.837Z,13.58
2019-05-17T04:25:53.682Z,13.28
2019-05-17T04:28:38.416Z,14.18
2019-05-17T04:31:23.210Z,14.13
2019-05-17T04:34:07.958Z,14.07
2019-05-17T04:36:52.667Z,15.10
2019-05-17T04:39:37.592Z,13.88
2019-05-17T04:42:22.891Z,14.80
2019-05-17T04:45:08.808Z,15.65
2019-05-17T04:47:53.712Z,15.10
2019-05-17T04:50:38.384Z,15.90
2019-05-17T04:53:23.611Z,15.15
2019-05-17T04:56:08.485Z,15.05
2019-05-17T04:58:54.316Z,16.30
2019-05-17T05:01:43.228Z,15.83
2019-05-17T05:04:26.640Z,16.30
2019-05-17T05:07:13.715Z,17.40
2019-05-17T05:09:58.382Z,17.85
2019-05-17T05:12:44.016Z,16.82
2019-05-17T05:15:43.977Z,17.42
2019-05-17T05:18:29.164Z,17.10
2019-05-17T05:21:14.053Z,17.90
2019-05-17T05:23:58.854Z,17.12
2019-05-17T05:26:43.759Z,16.62
2019-05-17T05:29:28.517Z,17.17
2019-05-17T05:32:13.292Z,17.67
2019-05-17T05:34:58.161Z,17.30
2019-05-17T05:37:43.005Z,16.85
2019-05-17T05:40:28.038Z,18.45
2019-05-17T05:43:12.840Z,18.12
2019-05-17T05:45:57.762Z,17.65
2019-05-17T05:48:42.590Z,17.23
2019-05-17T05:51:27.412Z,18.07
2019-05-17T05:54:12.436Z,16.93
2019-05-17T05:56:57.597Z,17.85
2019-05-17T05:59:42.588Z,17.32
2019-05-17T06:02:29.137Z,16.45
2019-05-17T06:05:17.258Z,17.70
2019-05-17T06:08:02.881Z,17.37
2019-05-17T06:10:48.024Z,16.87
2019-05-17T06:13:33.053Z,17.95
2019-05-17T06:16:17.766Z,17.50
2019-05-17T06:19:02.951Z,17.62
2019-05-17T06:21:48.065Z,16.90
2019-05-17T06:24:32.804Z,17.10
2019-05-17T06:27:17.740Z,17.75
2019-05-17T06:30:04.758Z,17.35
2019-05-17T06:32:51.798Z,17.80
2019-05-17T06:35:36.426Z,18.12
2019-05-17T06:38:22.416Z,17.60
2019-05-17T06:41:07.779Z,19.40
2019-05-17T06:43:52.514Z,18.50
2019-05-17T06:46:37.937Z,17.82
2019-05-17T06:49:22.753Z,17.75
2019-05-17T06:52:07.485Z,17.87
2019-05-17T06:54:52.585Z,18.20
2019-05-17T06:57:37.530Z,17.52
2019-05-17T07:00:23.933Z,16.77
2019-05-17T07:03:09.694Z,17.37
2019-05-17T07:05:56.565Z,16.82
2019-05-17T07:08:41.406Z,16.82
2019-05-17T07:11:26.273Z,17.70
2019-05-17T07:14:11.106Z,16.70
2019-05-17T07:16:55.790Z,16.85
2019-05-17T07:19:40.638Z,14.60
2019-05-17T07:22:25.519Z,15.78
2019-05-17T07:25:11.130Z,16.60
2019-05-17T07:27:56.343Z,16.17
2019-05-17T07:30:41.209Z,15.90
2019-05-17T07:33:25.928Z,16.32
2019-05-17T07:36:10.779Z,15.35
2019-05-17T07:38:55.420Z,15.13
2019-05-17T07:41:40.291Z,15.23
2019-05-17T07:44:25.202Z,13.85
2019-05-17T07:47:09.960Z,12.93
2019-05-17T07:49:55.157Z,13.55
2019-05-17T07:52:40.426Z,13.65
2019-05-17T07:55:25.254Z,14.05
2019-05-17T07:58:10.318Z,13.72
2019-05-17T08:00:55.323Z,12.37
2019-05-17T08:03:40.587Z,13.72
2019-05-17T08:06:26.138Z,13.32
2019-05-17T08:09:14.025Z,12.93
2019-05-17T08:11:59.724Z,12.53
2019-05-17T08:14:44.798Z,13.70
2019-05-17T08:17:30.433Z,12.05
2019-05-17T08:20:15.588Z,13.08
2019-05-17T08:23:00.249Z,13.13
2019-05-17T08:25:52.587Z,12.82
2019-05-17T08:28:31.855Z,14.07
2019-05-17T08:31:17.298Z,13.53
2019-05-17T08:34:02.314Z,13.85
2019-05-17T08:36:47.173Z,13.60
2019-05-17T08:39:31.965Z,13.38
2019-05-17T08:42:16.969Z,13.10
2019-05-17T08:45:02.610Z,12.85
2019-05-17T08:47:50.053Z,13.10
2019-05-17T08:50:36.625Z,12.88
2019-05-17T08:53:21.221Z,12.25
2019-05-17T08:56:06.079Z,12.65
2019-05-17T08:58:50.707Z,13.93
2019-05-17T09:01:38.461Z,13.30
2019-05-17T09:04:23.476Z,13.90
2019-05-17T09:07:09.483Z,13.70
2019-05-17T09:09:54.525Z,12.58
2019-05-17T09:12:40.954Z,13.60
2019-05-17T09:15:25.988Z,11.93
2019-05-17T09:18:11.132Z,12.15
2019-05-17T09:20:55.928Z,11.78
2019-05-17T09:23:40.840Z,11.85
2019-05-17T09:26:25.581Z,11.85
2019-05-17T09:29:10.873Z,10.60
2019-05-17T09:31:56.169Z,12.28
2019-05-17T09:34:40.978Z,11.55
2019-05-17T09:37:25.868Z,12.65
2019-05-17T09:40:10.945Z,11.40
2019-05-17T09:42:56.078Z,10.85
2019-05-17T09:45:40.859Z,10.95
2019-05-17T09:48:25.778Z,10.98
2019-05-17T09:51:10.700Z,11.50
2019-05-17T09:53:56.808Z,10.48
2019-05-17T09:56:41.782Z,10.65
2019-05-17T09:59:26.577Z,10.65
2019-05-17T10:02:11.481Z,10.15
2019-05-17T10:04:56.242Z,9.85
2019-05-17T10:07:41.093Z,11.03
2019-05-17T10:10:26.026Z,10.15
2019-05-17T10:13:11.115Z,10.25
2019-05-17T10:16:15.794Z,9.63
2019-05-17T10:19:00.793Z,9.15
2019-05-17T10:21:45.640Z,8.55
2019-05-17T10:24:37.954Z,8.53
2019-05-17T10:27:19.489Z,9.28
2019-05-17T10:30:05.853Z,9.18
2019-05-17T10:32:50.910Z,9.45
2019-05-17T10:35:35.617Z,8.80
2019-05-17T10:38:20.381Z,8.73
2019-05-17T10:41:05.199Z,8.78
2019-05-17T10:43:50.224Z,8.18
2019-05-17T10:46:35.340Z,9.08
2019-05-17T10:49:20.324Z,8.28
2019-05-17T10:52:05.220Z,8.30
2019-05-17T10:54:50.325Z,7.33
2019-05-17T10:57:35.237Z,7.87
2019-05-17T11:00:21.041Z,8.65
2019-05-17T11:03:06.264Z,7.28
2019-05-17T11:05:51.345Z,7.28
2019-05-17T11:08:36.218Z,7.55
2019-05-17T11:11:21.003Z,7.25
2019-05-17T11:14:05.925Z,7.45
2019-05-17T11:16:51.101Z,6.75
2019-05-17T11:19:35.894Z,7.15
2019-05-17T11:22:21.372Z,7.90
2019-05-17T11:25:06.744Z,5.35
2019-05-17T11:27:51.963Z,6.78
2019-05-17T11:30:36.770Z,6.40
2019-05-17T11:33:21.745Z,6.75
2019-05-17T11:36:06.460Z,5.80
2019-05-17T11:38:51.457Z,6.28
2019-05-17T11:41:36.113Z,4.95
2019-05-17T11:44:21.038Z,5.42
2019-05-17T11:47:06.206Z,6.03
2019-05-17T11:49:51.276Z,6.35
2019-05-17T11:52:36.195Z,6.35
2019-05-17T11:55:21.029Z,4.90
2019-05-17T11:58:05.974Z,5.15
2019-05-17T12:00:50.624Z,4.50
2019-05-17T12:03:35.342Z,5.55
2019-05-17T12:06:20.165Z,3.92
2019-05-17T12:09:05.405Z,5.10
2019-05-17T12:11:50.625Z,4.80
2019-05-17T12:14:35.562Z,4.80
2019-05-17T12:17:20.542Z,4.15
2019-05-17T12:20:06.471Z,4.10
2019-05-17T12:22:51.902Z,4.90
2019-05-17T12:25:36.859Z,4.70
2019-05-17T12:28:21.873Z,5.42
2019-05-17T12:31:07.131Z,4.05
2019-05-17T12:33:52.002Z,3.58
2019-05-17T12:36:37.009Z,5.03
2019-05-17T12:39:21.748Z,4.72
2019-05-17T12:42:06.574Z,3.65
2019-05-17T12:44:51.446Z,4.33
2019-05-17T12:47:36.264Z,3.83
2019-05-17T12:50:21.254Z,3.30
2019-05-17T12:53:06.480Z,3.00
2019-05-17T12:55:51.375Z,3.33
2019-05-17T12:58:36.118Z,3.70
2019-05-17T13:01:21.130Z,3.37
2019-05-17T13:04:05.955Z,3.27
2019-05-17T13:06:50.869Z,3.02
2019-05-17T13:09:35.618Z,3.00
2019-05-17T13:12:20.426Z,3.22
2019-05-17T13:15:06.352Z,3.20
2019-05-17T13:17:51.330Z,2.70
2019-05-17T13:20:37.894Z,3.50
2019-05-17T13:23:23.003Z,3.37
2019-05-17T13:26:07.896Z,3.42
2019-05-17T13:28:52.620Z,3.30
2019-05-17T13:31:37.798Z,2.90
2019-05-17T13:34:22.805Z,3.05
2019-05-17T13:37:07.703Z,3.42
2019-05-17T13:39:52.587Z,2.67
2019-05-17T13:42:37.572Z,2.52
2019-05-17T13:45:22.862Z,3.02
2019-05-17T13:48:07.749Z,2.30
2019-05-17T13:50:52.536Z,2.75
2019-05-17T13:53:37.336Z,2.62
2019-05-17T13:56:22.268Z,3.00
2019-05-17T13:59:07.464Z,3.08
2019-05-17T14:01:52.538Z,3.30
2019-05-17T14:04:38.841Z,2.95
2019-05-17T14:07:23.618Z,3.00
2019-05-17T14:10:24.599Z,3.35
2019-05-17T14:12:56.040Z,3.50
2019-05-17T14:15:40.752Z,3.30
2019-05-17T14:18:25.680Z,3.75
2019-05-17T14:21:10.521Z,3.58
2019-05-17T14:23:56.425Z,3.08
2019-05-17T14:26:41.668Z,3.08
2019-05-17T14:29:26.526Z,3.02
2019-05-17T14:32:11.444Z,2.67
2019-05-17T14:34:56.633Z,2.75
2019-05-17T14:37:41.621Z,3.50
2019-05-17T14:41:00.528Z,3.05
2019-05-17T14:43:13.403Z,2.90
2019-05-17T14:45:58.305Z,3.05
2019-05-17T14:48:43.066Z,2.98
2019-05-17T14:51:28.464Z,3.22
2019-05-17T14:54:13.149Z,3.08
2019-05-17T14:56:58.086Z,3.30
2019-05-17T14:59:42.823Z,2.70
2019-05-17T15:02:28.801Z,3.22
2019-05-17T15:05:13.779Z,2.70
2019-05-17T15:07:58.953Z,3.00
2019-05-17T15:10:43.826Z,3.00
2019-05-17T15:13:28.648Z,3.10
2019-05-17T15:16:13.665Z,3.15
2019-05-17T15:18:58.358Z,2.75
2019-05-17T15:21:43.293Z,2.90
2019-05-17T15:24:28.160Z,2.80
2019-05-17T15:27:12.859Z,3.05
2019-05-17T15:29:57.586Z,2.83
2019-05-17T15:32:42.478Z,3.22
2019-05-17T15:35:27.505Z,2.02
2019-05-17T15:38:12.215Z,1.80
2019-05-17T15:40:58.198Z,2.02
2019-05-17T15:43:42.950Z,2.00
2019-05-17T15:46:27.969Z,2.12
2019-05-17T15:49:13.125Z,2.60
2019-05-17T15:51:58.054Z,2.12
2019-05-17T15:54:42.810Z,2.65
2019-05-17T15:57:27.822Z,2.55
2019-05-17T16:00:13.460Z,2.55
2019-05-17T16:02:58.410Z,1.90
2019-05-17T16:05:43.454Z,2.35
2019-05-17T16:08:29.736Z,3.00
2019-05-17T16:11:14.530Z,1.95
2019-05-17T16:13:59.329Z,1.60
2019-05-17T16:16:43.897Z,1.65
2019-05-17T16:19:28.683Z,1.50
2019-05-17T16:22:13.458Z,1.60
2019-05-17T16:24:58.340Z,1.22
2019-05-17T16:27:43.203Z,1.50
2019-05-17T16:30:28.265Z,1.60
2019-05-17T16:33:13.595Z,1.32
2019-05-17T16:35:58.816Z,1.47
2019-05-17T16:38:43.583Z,1.67
2019-05-17T16:41:28.446Z,1.40
2019-05-17T16:44:14.735Z,1.30
2019-05-17T16:47:00.140Z,1.65
2019-05-17T16:49:45.038Z,1.60
2019-05-17T16:52:29.830Z,1.77
2019-05-17T16:55:14.751Z,1.62
2019-05-17T16:57:59.502Z,2.15
2019-05-17T17:00:45.124Z,1.90
2019-05-17T17:03:43.630Z,1.72
2019-05-17T17:06:16.887Z,2.10
2019-05-17T17:09:01.670Z,2.00
2019-05-17T17:11:48.362Z,2.40
2019-05-17T17:14:33.086Z,2.30
2019-05-17T17:17:18.213Z,2.20
2019-05-17T17:20:04.825Z,2.37
2019-05-17T17:22:49.764Z,2.20
2019-05-17T17:25:34.532Z,2.27
2019-05-17T17:28:21.903Z,2.50
2019-05-17T17:31:09.881Z,2.22
2019-05-17T17:33:54.895Z,3.67
2019-05-17T17:36:39.602Z,3.33
2019-05-17T17:39:24.448Z,2.40
2019-05-17T17:42:09.327Z,2.35
2019-05-17T17:44:54.582Z,1.80
2019-05-17T17:47:39.451Z,2.12
2019-05-17T17:50:24.410Z,2.17
2019-05-17T17:53:09.636Z,2.20
2019-05-17T17:55:54.335Z,2.37
2019-05-17T17:58:39.656Z,2.17
2019-05-17T18:01:24.490Z,2.90
2019-05-17T18:04:09.276Z,2.50
2019-05-17T18:06:54.003Z,2.15
2019-05-17T18:09:39.103Z,2.20
2019-05-17T18:12:24.238Z,2.50
2019-05-17T18:15:12.087Z,2.17
2019-05-17T18:17:56.938Z,1.90
2019-05-17T18:20:42.420Z,3.20
2019-05-17T18:23:27.683Z,26.20
2019-05-17T18:26:12.462Z,20.80
2019-05-17T18:28:57.357Z,9.58
2019-05-17T18:31:42.246Z,8.88
2019-05-17T18:34:27.446Z,6.42
2019-05-17T18:37:12.531Z,3.15
2019-05-17T18:39:58.166Z,2.58
2019-05-17T18:42:43.438Z,2.98
2019-05-17T18:45:28.438Z,2.50
2019-05-17T18:48:13.670Z,2.60
2019-05-17T18:50:58.894Z,2.75
2019-05-17T18:53:43.999Z,2.67
2019-05-17T18:56:29.081Z,2.67
2019-05-17T18:59:14.275Z,2.52
2019-05-17T19:01:59.297Z,3.02
2019-05-17T19:04:44.136Z,3.45
2019-05-17T19:07:29.039Z,2.50
2019-05-17T19:10:14.199Z,2.37
2019-05-17T19:12:59.377Z,2.50
2019-05-17T19:15:44.201Z,2.80
2019-05-17T19:18:28.885Z,2.55
2019-05-17T19:21:14.066Z,2.55
2019-05-17T19:23:59.978Z,2.95
2019-05-17T19:26:45.501Z,2.98
2019-05-17T19:29:30.269Z,2.60
2019-05-17T19:32:15.194Z,2.80
2019-05-17T19:34:59.768Z,4.00
2019-05-17T19:37:44.701Z,2.92
2019-05-17T19:40:29.998Z,3.10
2019-05-17T19:43:14.836Z,2.70
2019-05-17T19:46:00.304Z,2.37
2019-05-17T19:48:46.709Z,2.83
2019-05-17T19:51:31.601Z,2.65
2019-05-17T19:54:16.360Z,6.85
2019-05-17T19:57:01.151Z,7.50
2019-05-17T19:59:46.394Z,3.00
2019-05-17T20:02:31.136Z,2.55
2019-05-17T20:05:16.177Z,2.80
2019-05-17T20:08:02.539Z,2.30
2019-05-17T20:10:47.760Z,3.95
2019-05-17T20:13:32.676Z,2.80
2019-05-17T20:16:17.824Z,2.70
2019-05-17T20:19:02.783Z,3.00
2019-05-17T20:21:48.029Z,2.60
2019-05-17T20:24:33.104Z,4.03
2019-05-17T20:27:18.387Z,2.95
2019-05-17T20:30:05.668Z,2.98
2019-05-17T20:32:50.355Z,2.98
2019-05-17T20:35:35.041Z,2.35
2019-05-17T20:38:20.297Z,2.50
2019-05-17T20:41:05.681Z,2.30
2019-05-17T20:43:52.737Z,3.00
2019-05-17T20:46:37.670Z,3.10
2019-05-17T20:49:22.719Z,2.47
2019-05-17T20:52:08.968Z,2.37
2019-05-17T20:54:54.260Z,4.10
2019-05-17T20:57:39.065Z,3.15
2019-05-17T21:00:23.841Z,2.58
2019-05-17T21:03:08.918Z,3.00
2019-05-17T21:05:53.694Z,3.35
2019-05-17T21:08:46.156Z,2.95
2019-05-17T21:11:25.485Z,2.87
2019-05-17T21:14:10.382Z,3.60
2019-05-17T21:16:55.165Z,4.25
2019-05-17T21:19:39.875Z,4.50
2019-05-17T21:22:24.679Z,4.08
2019-05-17T21:25:09.901Z,3.55
2019-05-17T21:27:54.692Z,3.15
2019-05-17T21:30:39.439Z,3.30
2019-05-17T21:33:24.202Z,3.27
2019-05-17T21:36:09.106Z,2.95
2019-05-17T21:38:53.916Z,2.80
2019-05-17T21:41:38.801Z,3.02
2019-05-17T21:44:26.259Z,3.35
2019-05-17T21:47:10.928Z,3.80
2019-05-17T21:49:55.647Z,3.90
2019-05-17T21:52:40.421Z,3.58
2019-05-17T21:55:25.309Z,3.65
2019-05-17T21:58:09.948Z,3.25
2019-05-17T22:01:10.593Z,2.58
2019-05-17T22:03:55.480Z,2.87
2019-05-17T22:06:40.266Z,2.92
2019-05-17T22:09:25.024Z,2.42
2019-05-17T22:12:11.789Z,2.90
2019-05-17T22:14:56.669Z,3.25
2019-05-17T22:17:41.577Z,5.85
2019-05-17T22:20:26.578Z,9.25
2019-05-17T22:23:11.470Z,7.47
2019-05-17T22:25:56.218Z,6.33
2019-05-17T22:28:41.111Z,7.03
2019-05-17T22:31:26.281Z,6.53
2019-05-17T22:34:11.047Z,6.15
2019-05-17T22:36:55.813Z,4.92
2019-05-17T22:39:40.725Z,3.80
2019-05-17T22:42:25.536Z,3.67
2019-05-17T22:45:10.855Z,3.17
2019-05-17T22:47:55.900Z,3.42
2019-05-17T22:50:41.795Z,3.65
2019-05-17T22:53:26.599Z,3.72
2019-05-17T22:56:11.411Z,3.10
2019-05-17T22:58:56.325Z,3.00
2019-05-17T23:01:41.022Z,3.55
2019-05-17T23:04:26.012Z,3.15
2019-05-17T23:07:11.241Z,2.70
2019-05-17T23:09:56.170Z,2.60
2019-05-17T23:12:40.938Z,2.90
2019-05-17T23:15:27.715Z,3.05
2019-05-17T23:18:12.593Z,2.70
2019-05-17T23:20:57.343Z,2.83
2019-05-17T23:23:42.286Z,3.02
2019-05-17T23:26:27.022Z,3.20
2019-05-17T23:29:11.999Z,3.00
2019-05-17T23:31:56.757Z,3.08
2019-05-17T23:34:41.549Z,2.87
2019-05-17T23:37:26.414Z,3.17
2019-05-17T23:40:11.401Z,2.77
2019-05-17T23:42:56.511Z,3.47
2019-05-17T23:45:41.297Z,3.00
2019-05-17T23:48:26.221Z,3.10
2019-05-17T23:51:10.937Z,3.60
2019-05-17T23:53:55.849Z,3.30
2019-05-17T23:56:40.585Z,3.30
2019-05-17T23:59:25.413Z,3.50
